Terminal Aerodrome Forecast
Issued by NWS

Home | Current Version | Previous Version | Text Only | Print | Product List | Glossary On
Versions: 1 2 3 4 5 6 7 8 9 10 11 12 13 14 15 16 17 18 19 20 21
000
FTUS43 KABR 031100
TAFMBG
TAF
KMBG 031130Z 0312/0412 34022G30KT 3SM -SN SCT018 OVC025
     FM031500 34022KT P6SM -SN OVC015
     FM032100 33018KT P6SM BKN025
     FM040000 33010KT P6SM SKC=

USA.gov is the U.S. government's official web portal to all federal, state and local government web resources and services.